sensor_id;sensor_type;location;lat;lon;timestamp;P1;durP1;ratioP1;P2;durP2;ratioP2
21245;SDS011;10781;50.928;4.440;2022-12-07T00:01:16;13.13;;;9.38;;
21245;SDS011;10781;50.928;4.440;2022-12-07T00:03:42;13.90;;;9.15;;
21245;SDS011;10781;50.928;4.440;2022-12-07T00:06:10;14.75;;;9.85;;
21245;SDS011;10781;50.928;4.440;2022-12-07T00:08:37;15.23;;;10.32;;
21245;SDS011;10781;50.928;4.440;2022-12-07T00:11:06;15.02;;;10.02;;
21245;SDS011;10781;50.928;4.440;2022-12-07T00:13:34;17.17;;;10.93;;
21245;SDS011;10781;50.928;4.440;2022-12-07T00:16:04;16.10;;;10.63;;
21245;SDS011;10781;50.928;4.440;2022-12-07T00:18:32;13.43;;;10.02;;
21245;SDS011;10781;50.928;4.440;2022-12-07T00:21:01;16.95;;;10.50;;
21245;SDS011;10781;50.928;4.440;2022-12-07T00:23:28;15.52;;;11.05;;
21245;SDS011;10781;50.928;4.440;2022-12-07T00:25:53;15.18;;;11.23;;
21245;SDS011;10781;50.928;4.440;2022-12-07T00:28:19;15.80;;;12.00;;
21245;SDS011;10781;50.928;4.440;2022-12-07T00:30:45;18.88;;;11.25;;
21245;SDS011;10781;50.928;4.440;2022-12-07T00:33:10;17.73;;;11.15;;
21245;SDS011;10781;50.928;4.440;2022-12-07T00:35:36;16.90;;;11.20;;
21245;SDS011;10781;50.928;4.440;2022-12-07T00:38:01;16.83;;;11.00;;
21245;SDS011;10781;50.928;4.440;2022-12-07T00:40:27;15.85;;;11.27;;
21245;SDS011;10781;50.928;4.440;2022-12-07T00:42:52;15.68;;;11.10;;
21245;SDS011;10781;50.928;4.440;2022-12-07T00:45:18;16.63;;;11.38;;
21245;SDS011;10781;50.928;4.440;2022-12-07T00:47:44;20.23;;;11.38;;
21245;SDS011;10781;50.928;4.440;2022-12-07T00:50:09;13.70;;;10.10;;
21245;SDS011;10781;50.928;4.440;2022-12-07T00:52:35;15.95;;;10.73;;
21245;SDS011;10781;50.928;4.440;2022-12-07T00:55:00;17.55;;;11.63;;
21245;SDS011;10781;50.928;4.440;2022-12-07T00:57:26;14.98;;;11.30;;
21245;SDS011;10781;50.928;4.440;2022-12-07T00:59:52;15.80;;;11.13;;
21245;SDS011;10781;50.928;4.440;2022-12-07T01:02:20;15.63;;;10.82;;
21245;SDS011;10781;50.928;4.440;2022-12-07T01:04:46;15.40;;;10.55;;
21245;SDS011;10781;50.928;4.440;2022-12-07T01:07:12;18.05;;;11.45;;
21245;SDS011;10781;50.928;4.440;2022-12-07T01:09:37;16.25;;;11.40;;
21245;SDS011;10781;50.928;4.440;2022-12-07T01:12:03;16.38;;;10.68;;
21245;SDS011;10781;50.928;4.440;2022-12-07T01:14:29;15.00;;;10.85;;
21245;SDS011;10781;50.928;4.440;2022-12-07T01:16:54;16.95;;;10.95;;
21245;SDS011;10781;50.928;4.440;2022-12-07T01:19:20;15.52;;;10.70;;
21245;SDS011;10781;50.928;4.440;2022-12-07T01:21:46;16.52;;;10.75;;
21245;SDS011;10781;50.928;4.440;2022-12-07T01:24:11;14.77;;;10.57;;
21245;SDS011;10781;50.928;4.440;2022-12-07T01:26:37;17.88;;;10.95;;
21245;SDS011;10781;50.928;4.440;2022-12-07T01:29:03;15.82;;;10.35;;
21245;SDS011;10781;50.928;4.440;2022-12-07T01:31:29;13.73;;;10.13;;
21245;SDS011;10781;50.928;4.440;2022-12-07T01:33:56;15.38;;;10.98;;
21245;SDS011;10781;50.928;4.440;2022-12-07T01:36:26;21.95;;;11.77;;
21245;SDS011;10781;50.928;4.440;2022-12-07T01:38:55;15.23;;;10.88;;
21245;SDS011;10781;50.928;4.440;2022-12-07T01:41:24;22.08;;;12.38;;
21245;SDS011;10781;50.928;4.440;2022-12-07T01:46:39;18.08;;;11.75;;
21245;SDS011;10781;50.928;4.440;2022-12-07T01:49:07;16.63;;;11.95;;
21245;SDS011;10781;50.928;4.440;2022-12-07T01:51:36;16.38;;;12.05;;
21245;SDS011;10781;50.928;4.440;2022-12-07T01:54:05;16.55;;;11.75;;
21245;SDS011;10781;50.928;4.440;2022-12-07T01:56:31;16.60;;;11.55;;
21245;SDS011;10781;50.928;4.440;2022-12-07T01:58:58;18.50;;;11.20;;
21245;SDS011;10781;50.928;4.440;2022-12-07T02:01:25;13.95;;;10.85;;
21245;SDS011;10781;50.928;4.440;2022-12-07T02:03:51;16.98;;;11.00;;
21245;SDS011;10781;50.928;4.440;2022-12-07T02:06:19;16.65;;;11.30;;
21245;SDS011;10781;50.928;4.440;2022-12-07T02:08:47;14.73;;;10.52;;
21245;SDS011;10781;50.928;4.440;2022-12-07T02:11:13;18.55;;;10.48;;
21245;SDS011;10781;50.928;4.440;2022-12-07T02:13:40;14.15;;;9.60;;
21245;SDS011;10781;50.928;4.440;2022-12-07T02:24:19;13.30;;;9.70;;
21245;SDS011;10781;50.928;4.440;2022-12-07T02:30:05;14.73;;;9.75;;
21245;SDS011;10781;50.928;4.440;2022-12-07T02:32:40;16.10;;;10.60;;
21245;SDS011;10781;50.928;4.440;2022-12-07T02:35:43;16.48;;;10.07;;
21245;SDS011;10781;50.928;4.440;2022-12-07T02:40:48;16.17;;;10.38;;
21245;SDS011;10781;50.928;4.440;2022-12-07T02:45:57;15.20;;;8.60;;
21245;SDS011;10781;50.928;4.440;2022-12-07T02:48:28;17.30;;;10.10;;
21245;SDS011;10781;50.928;4.440;2022-12-07T02:50:56;14.48;;;9.38;;
21245;SDS011;10781;50.928;4.440;2022-12-07T02:53:32;17.45;;;10.00;;
21245;SDS011;10781;50.928;4.440;2022-12-07T02:56:30;15.25;;;9.75;;
21245;SDS011;10781;50.928;4.440;2022-12-07T03:07:35;13.05;;;8.48;;
21245;SDS011;10781;50.928;4.440;2022-12-07T03:10:16;14.30;;;8.75;;
21245;SDS011;10781;50.928;4.440;2022-12-07T03:13:12;14.90;;;8.98;;
21245;SDS011;10781;50.928;4.440;2022-12-07T03:16:33;10.65;;;8.13;;
21245;SDS011;10781;50.928;4.440;2022-12-07T03:18:52;11.85;;;8.65;;
21245;SDS011;10781;50.928;4.440;2022-12-07T03:21:33;11.95;;;8.15;;
21245;SDS011;10781;50.928;4.440;2022-12-07T03:24:05;13.38;;;8.00;;
21245;SDS011;10781;50.928;4.440;2022-12-07T03:26:35;12.35;;;7.80;;
21245;SDS011;10781;50.928;4.440;2022-12-07T03:29:09;12.00;;;7.43;;
21245;SDS011;10781;50.928;4.440;2022-12-07T03:31:40;12.13;;;7.30;;
21245;SDS011;10781;50.928;4.440;2022-12-07T03:37:00;13.23;;;7.68;;
21245;SDS011;10781;50.928;4.440;2022-12-07T03:39:38;12.30;;;7.13;;
21245;SDS011;10781;50.928;4.440;2022-12-07T03:42:09;10.85;;;7.45;;
21245;SDS011;10781;50.928;4.440;2022-12-07T03:44:36;9.00;;;7.00;;
21245;SDS011;10781;50.928;4.440;2022-12-07T03:47:16;11.65;;;7.72;;
21245;SDS011;10781;50.928;4.440;2022-12-07T03:50:42;11.85;;;7.40;;
21245;SDS011;10781;50.928;4.440;2022-12-07T03:53:15;11.85;;;7.38;;
21245;SDS011;10781;50.928;4.440;2022-12-07T03:55:55;12.95;;;7.38;;
21245;SDS011;10781;50.928;4.440;2022-12-07T03:58:22;11.13;;;7.68;;
21245;SDS011;10781;50.928;4.440;2022-12-07T04:00:49;15.25;;;7.93;;
21245;SDS011;10781;50.928;4.440;2022-12-07T04:03:15;15.95;;;8.40;;
21245;SDS011;10781;50.928;4.440;2022-12-07T04:05:41;12.05;;;8.38;;
21245;SDS011;10781;50.928;4.440;2022-12-07T04:08:08;12.77;;;7.78;;
21245;SDS011;10781;50.928;4.440;2022-12-07T04:10:34;14.20;;;7.88;;
21245;SDS011;10781;50.928;4.440;2022-12-07T04:13:00;11.07;;;7.63;;
21245;SDS011;10781;50.928;4.440;2022-12-07T04:15:26;12.43;;;7.93;;
21245;SDS011;10781;50.928;4.440;2022-12-07T04:17:52;14.40;;;9.45;;
21245;SDS011;10781;50.928;4.440;2022-12-07T04:20:18;14.30;;;9.25;;
21245;SDS011;10781;50.928;4.440;2022-12-07T04:22:44;12.82;;;8.88;;
21245;SDS011;10781;50.928;4.440;2022-12-07T04:25:10;15.93;;;10.60;;
21245;SDS011;10781;50.928;4.440;2022-12-07T04:27:35;17.08;;;10.43;;
21245;SDS011;10781;50.928;4.440;2022-12-07T04:30:01;15.82;;;10.10;;
21245;SDS011;10781;50.928;4.440;2022-12-07T04:32:27;14.35;;;8.77;;
21245;SDS011;10781;50.928;4.440;2022-12-07T04:34:53;16.65;;;8.95;;
21245;SDS011;10781;50.928;4.440;2022-12-07T04:37:19;15.93;;;9.45;;
21245;SDS011;10781;50.928;4.440;2022-12-07T04:39:44;12.77;;;8.18;;
21245;SDS011;10781;50.928;4.440;2022-12-07T04:42:10;14.80;;;9.35;;
21245;SDS011;10781;50.928;4.440;2022-12-07T04:44:37;13.68;;;8.60;;
21245;SDS011;10781;50.928;4.440;2022-12-07T04:47:03;15.82;;;8.60;;
21245;SDS011;10781;50.928;4.440;2022-12-07T04:49:29;14.48;;;8.50;;
21245;SDS011;10781;50.928;4.440;2022-12-07T04:51:55;12.98;;;9.48;;
21245;SDS011;10781;50.928;4.440;2022-12-07T04:54:21;13.93;;;8.98;;
21245;SDS011;10781;50.928;4.440;2022-12-07T04:56:47;15.98;;;8.82;;
21245;SDS011;10781;50.928;4.440;2022-12-07T04:59:13;12.40;;;8.07;;
21245;SDS011;10781;50.928;4.440;2022-12-07T05:01:40;11.95;;;7.97;;
21245;SDS011;10781;50.928;4.440;2022-12-07T05:04:06;18.15;;;8.93;;
21245;SDS011;10781;50.928;4.440;2022-12-07T05:06:32;13.85;;;8.95;;
21245;SDS011;10781;50.928;4.440;2022-12-07T05:08:57;17.48;;;9.13;;
21245;SDS011;10781;50.928;4.440;2022-12-07T05:11:23;13.73;;;8.35;;
21245;SDS011;10781;50.928;4.440;2022-12-07T05:14:10;17.10;;;8.48;;
21245;SDS011;10781;50.928;4.440;2022-12-07T05:16:45;15.05;;;9.02;;
21245;SDS011;10781;50.928;4.440;2022-12-07T05:19:12;15.60;;;9.00;;
21245;SDS011;10781;50.928;4.440;2022-12-07T05:21:38;18.98;;;9.48;;
21245;SDS011;10781;50.928;4.440;2022-12-07T05:24:05;15.45;;;9.77;;
21245;SDS011;10781;50.928;4.440;2022-12-07T05:26:31;14.85;;;9.63;;
21245;SDS011;10781;50.928;4.440;2022-12-07T05:28:57;18.15;;;9.57;;
21245;SDS011;10781;50.928;4.440;2022-12-07T05:31:23;14.25;;;8.90;;
21245;SDS011;10781;50.928;4.440;2022-12-07T05:33:50;16.25;;;9.70;;
21245;SDS011;10781;50.928;4.440;2022-12-07T05:36:16;15.52;;;9.60;;
21245;SDS011;10781;50.928;4.440;2022-12-07T05:38:41;14.88;;;9.43;;
21245;SDS011;10781;50.928;4.440;2022-12-07T05:41:07;15.35;;;10.07;;
21245;SDS011;10781;50.928;4.440;2022-12-07T05:43:56;15.48;;;9.75;;
21245;SDS011;10781;50.928;4.440;2022-12-07T05:46:22;14.68;;;9.10;;
21245;SDS011;10781;50.928;4.440;2022-12-07T05:48:47;15.60;;;9.80;;
21245;SDS011;10781;50.928;4.440;2022-12-07T05:51:13;14.05;;;9.02;;
21245;SDS011;10781;50.928;4.440;2022-12-07T05:53:39;12.23;;;8.45;;
21245;SDS011;10781;50.928;4.440;2022-12-07T05:56:07;14.57;;;8.93;;
21245;SDS011;10781;50.928;4.440;2022-12-07T05:58:36;15.43;;;8.63;;
21245;SDS011;10781;50.928;4.440;2022-12-07T06:01:20;13.32;;;9.30;;
21245;SDS011;10781;50.928;4.440;2022-12-07T06:03:46;17.15;;;8.88;;
21245;SDS011;10781;50.928;4.440;2022-12-07T06:06:11;16.15;;;8.95;;
21245;SDS011;10781;50.928;4.440;2022-12-07T06:08:37;14.00;;;8.93;;
21245;SDS011;10781;50.928;4.440;2022-12-07T06:11:03;12.82;;;9.23;;
21245;SDS011;10781;50.928;4.440;2022-12-07T06:13:47;11.35;;;9.10;;
21245;SDS011;10781;50.928;4.440;2022-12-07T06:16:12;15.18;;;9.02;;
21245;SDS011;10781;50.928;4.440;2022-12-07T06:18:38;14.25;;;8.88;;
21245;SDS011;10781;50.928;4.440;2022-12-07T06:21:04;12.30;;;8.13;;
21245;SDS011;10781;50.928;4.440;2022-12-07T06:23:29;13.48;;;8.70;;
21245;SDS011;10781;50.928;4.440;2022-12-07T06:25:55;13.63;;;8.43;;
21245;SDS011;10781;50.928;4.440;2022-12-07T06:28:20;13.10;;;8.00;;
21245;SDS011;10781;50.928;4.440;2022-12-07T06:30:46;10.45;;;7.70;;
21245;SDS011;10781;50.928;4.440;2022-12-07T06:33:12;12.55;;;7.97;;
21245;SDS011;10781;50.928;4.440;2022-12-07T06:35:37;11.75;;;8.25;;
21245;SDS011;10781;50.928;4.440;2022-12-07T06:38:03;13.52;;;8.38;;
21245;SDS011;10781;50.928;4.440;2022-12-07T06:40:28;13.50;;;7.65;;
21245;SDS011;10781;50.928;4.440;2022-12-07T06:42:54;13.30;;;8.38;;
21245;SDS011;10781;50.928;4.440;2022-12-07T06:45:20;12.50;;;8.48;;
21245;SDS011;10781;50.928;4.440;2022-12-07T06:47:46;16.05;;;9.05;;
21245;SDS011;10781;50.928;4.440;2022-12-07T06:50:11;13.15;;;8.10;;
21245;SDS011;10781;50.928;4.440;2022-12-07T06:52:37;15.95;;;8.02;;
21245;SDS011;10781;50.928;4.440;2022-12-07T06:55:04;12.55;;;7.78;;
21245;SDS011;10781;50.928;4.440;2022-12-07T06:57:30;15.15;;;8.27;;
21245;SDS011;10781;50.928;4.440;2022-12-07T06:59:56;11.65;;;7.53;;
21245;SDS011;10781;50.928;4.440;2022-12-07T07:02:21;16.73;;;8.65;;
21245;SDS011;10781;50.928;4.440;2022-12-07T07:04:47;11.70;;;7.65;;
21245;SDS011;10781;50.928;4.440;2022-12-07T07:07:12;15.57;;;8.57;;
21245;SDS011;10781;50.928;4.440;2022-12-07T07:09:38;17.35;;;8.70;;
21245;SDS011;10781;50.928;4.440;2022-12-07T07:12:03;13.93;;;8.10;;
21245;SDS011;10781;50.928;4.440;2022-12-07T07:14:29;15.57;;;9.57;;
21245;SDS011;10781;50.928;4.440;2022-12-07T07:16:55;16.58;;;9.27;;
21245;SDS011;10781;50.928;4.440;2022-12-07T07:19:20;12.63;;;8.55;;
21245;SDS011;10781;50.928;4.440;2022-12-07T07:21:46;14.07;;;9.05;;
21245;SDS011;10781;50.928;4.440;2022-12-07T07:24:12;16.00;;;9.40;;
21245;SDS011;10781;50.928;4.440;2022-12-07T07:26:37;16.27;;;8.70;;
21245;SDS011;10781;50.928;4.440;2022-12-07T07:29:03;16.55;;;9.00;;
21245;SDS011;10781;50.928;4.440;2022-12-07T07:31:28;13.57;;;8.63;;
21245;SDS011;10781;50.928;4.440;2022-12-07T07:33:54;18.77;;;9.60;;
21245;SDS011;10781;50.928;4.440;2022-12-07T07:36:20;14.55;;;8.70;;
21245;SDS011;10781;50.928;4.440;2022-12-07T07:38:45;15.75;;;9.38;;
21245;SDS011;10781;50.928;4.440;2022-12-07T07:41:11;16.95;;;9.35;;
21245;SDS011;10781;50.928;4.440;2022-12-07T07:43:37;15.00;;;9.40;;
21245;SDS011;10781;50.928;4.440;2022-12-07T07:46:02;15.15;;;8.43;;
21245;SDS011;10781;50.928;4.440;2022-12-07T07:48:28;14.68;;;9.43;;
21245;SDS011;10781;50.928;4.440;2022-12-07T07:50:56;14.80;;;8.40;;
21245;SDS011;10781;50.928;4.440;2022-12-07T07:53:21;17.45;;;9.73;;
21245;SDS011;10781;50.928;4.440;2022-12-07T07:55:51;16.27;;;9.30;;
21245;SDS011;10781;50.928;4.440;2022-12-07T07:58:20;16.50;;;9.35;;
21245;SDS011;10781;50.928;4.440;2022-12-07T08:00:46;15.98;;;10.00;;
21245;SDS011;10781;50.928;4.440;2022-12-07T08:03:12;16.15;;;9.98;;
21245;SDS011;10781;50.928;4.440;2022-12-07T08:05:40;14.68;;;10.15;;
21245;SDS011;10781;50.928;4.440;2022-12-07T08:08:06;19.88;;;10.93;;
21245;SDS011;10781;50.928;4.440;2022-12-07T08:10:32;17.58;;;11.07;;
21245;SDS011;10781;50.928;4.440;2022-12-07T08:12:59;17.25;;;10.63;;
21245;SDS011;10781;50.928;4.440;2022-12-07T08:15:39;19.17;;;12.02;;
21245;SDS011;10781;50.928;4.440;2022-12-07T08:18:06;20.38;;;10.68;;
21245;SDS011;10781;50.928;4.440;2022-12-07T08:20:33;16.40;;;11.63;;
21245;SDS011;10781;50.928;4.440;2022-12-07T08:23:02;19.38;;;11.38;;
21245;SDS011;10781;50.928;4.440;2022-12-07T08:25:28;22.27;;;12.07;;
21245;SDS011;10781;50.928;4.440;2022-12-07T08:27:54;21.80;;;11.32;;
21245;SDS011;10781;50.928;4.440;2022-12-07T08:30:19;22.75;;;12.15;;
21245;SDS011;10781;50.928;4.440;2022-12-07T08:32:46;20.35;;;12.25;;
21245;SDS011;10781;50.928;4.440;2022-12-07T08:35:12;18.25;;;12.20;;
21245;SDS011;10781;50.928;4.440;2022-12-07T08:37:38;17.40;;;11.98;;
21245;SDS011;10781;50.928;4.440;2022-12-07T08:40:05;20.63;;;11.35;;
21245;SDS011;10781;50.928;4.440;2022-12-07T08:42:31;17.20;;;11.45;;
21245;SDS011;10781;50.928;4.440;2022-12-07T08:45:06;19.95;;;13.05;;
21245;SDS011;10781;50.928;4.440;2022-12-07T08:47:37;18.65;;;12.43;;
21245;SDS011;10781;50.928;4.440;2022-12-07T08:50:07;20.98;;;12.95;;
21245;SDS011;10781;50.928;4.440;2022-12-07T08:52:34;20.30;;;12.18;;
21245;SDS011;10781;50.928;4.440;2022-12-07T08:55:01;21.58;;;11.85;;
21245;SDS011;10781;50.928;4.440;2022-12-07T08:57:29;17.55;;;11.32;;
21245;SDS011;10781;50.928;4.440;2022-12-07T08:59:57;14.82;;;9.18;;
21245;SDS011;10781;50.928;4.440;2022-12-07T09:02:22;12.32;;;7.57;;
21245;SDS011;10781;50.928;4.440;2022-12-07T09:04:48;13.18;;;7.93;;
21245;SDS011;10781;50.928;4.440;2022-12-07T09:07:14;11.60;;;7.20;;
21245;SDS011;10781;50.928;4.440;2022-12-07T09:09:40;14.85;;;7.38;;
21245;SDS011;10781;50.928;4.440;2022-12-07T09:12:05;10.48;;;7.07;;
21245;SDS011;10781;50.928;4.440;2022-12-07T09:14:31;12.18;;;7.00;;
21245;SDS011;10781;50.928;4.440;2022-12-07T09:17:08;10.90;;;6.88;;
21245;SDS011;10781;50.928;4.440;2022-12-07T09:19:36;12.50;;;6.95;;
21245;SDS011;10781;50.928;4.440;2022-12-07T09:22:02;11.48;;;7.40;;
21245;SDS011;10781;50.928;4.440;2022-12-07T09:24:29;10.35;;;6.30;;
21245;SDS011;10781;50.928;4.440;2022-12-07T09:26:56;9.95;;;6.82;;
21245;SDS011;10781;50.928;4.440;2022-12-07T09:29:22;8.30;;;6.20;;
21245;SDS011;10781;50.928;4.440;2022-12-07T09:31:48;8.85;;;5.72;;
21245;SDS011;10781;50.928;4.440;2022-12-07T09:34:14;9.15;;;6.60;;
21245;SDS011;10781;50.928;4.440;2022-12-07T09:36:40;12.48;;;7.10;;
21245;SDS011;10781;50.928;4.440;2022-12-07T09:39:05;13.60;;;7.20;;
21245;SDS011;10781;50.928;4.440;2022-12-07T09:41:31;10.98;;;7.10;;
21245;SDS011;10781;50.928;4.440;2022-12-07T09:44:05;9.60;;;6.07;;
21245;SDS011;10781;50.928;4.440;2022-12-07T09:46:45;11.30;;;6.70;;
21245;SDS011;10781;50.928;4.440;2022-12-07T09:49:12;10.07;;;6.15;;
21245;SDS011;10781;50.928;4.440;2022-12-07T09:51:42;10.02;;;6.18;;
21245;SDS011;10781;50.928;4.440;2022-12-07T09:54:08;14.95;;;6.45;;
21245;SDS011;10781;50.928;4.440;2022-12-07T09:56:38;8.27;;;5.80;;
21245;SDS011;10781;50.928;4.440;2022-12-07T09:59:04;8.70;;;6.22;;
21245;SDS011;10781;50.928;4.440;2022-12-07T10:01:30;13.65;;;6.45;;
21245;SDS011;10781;50.928;4.440;2022-12-07T10:04:01;10.57;;;6.50;;
21245;SDS011;10781;50.928;4.440;2022-12-07T10:06:37;9.68;;;6.55;;
21245;SDS011;10781;50.928;4.440;2022-12-07T10:09:14;13.80;;;5.97;;
21245;SDS011;10781;50.928;4.440;2022-12-07T10:15:02;9.25;;;5.45;;
21245;SDS011;10781;50.928;4.440;2022-12-07T10:22:55;10.45;;;5.18;;
21245;SDS011;10781;50.928;4.440;2022-12-07T10:25:32;10.43;;;4.80;;
21245;SDS011;10781;50.928;4.440;2022-12-07T10:35:54;12.85;;;5.68;;
21245;SDS011;10781;50.928;4.440;2022-12-07T10:38:20;9.48;;;5.22;;
21245;SDS011;10781;50.928;4.440;2022-12-07T10:40:46;12.23;;;5.70;;
21245;SDS011;10781;50.928;4.440;2022-12-07T10:48:31;9.55;;;5.60;;
21245;SDS011;10781;50.928;4.440;2022-12-07T10:51:10;8.82;;;5.43;;
21245;SDS011;10781;50.928;4.440;2022-12-07T10:56:40;12.23;;;6.15;;
21245;SDS011;10781;50.928;4.440;2022-12-07T11:08:00;13.27;;;6.80;;
21245;SDS011;10781;50.928;4.440;2022-12-07T11:10:54;11.07;;;6.50;;
21245;SDS011;10781;50.928;4.440;2022-12-07T11:22:36;9.90;;;4.95;;
21245;SDS011;10781;50.928;4.440;2022-12-07T11:25:32;13.10;;;5.68;;
21245;SDS011;10781;50.928;4.440;2022-12-07T11:36:17;9.93;;;5.22;;
21245;SDS011;10781;50.928;4.440;2022-12-07T11:42:09;9.43;;;5.47;;
21245;SDS011;10781;50.928;4.440;2022-12-07T11:50:30;8.27;;;4.78;;
21245;SDS011;10781;50.928;4.440;2022-12-07T11:53:05;10.52;;;5.03;;
21245;SDS011;10781;50.928;4.440;2022-12-07T11:55:57;8.60;;;4.78;;
21245;SDS011;10781;50.928;4.440;2022-12-07T11:58:46;9.00;;;4.80;;
21245;SDS011;10781;50.928;4.440;2022-12-07T12:03:44;6.22;;;4.10;;
21245;SDS011;10781;50.928;4.440;2022-12-07T12:06:14;13.98;;;4.00;;
21245;SDS011;10781;50.928;4.440;2022-12-07T12:08:44;6.60;;;3.33;;
21245;SDS011;10781;50.928;4.440;2022-12-07T12:11:27;5.57;;;3.58;;
21245;SDS011;10781;50.928;4.440;2022-12-07T12:17:09;7.28;;;3.80;;
21245;SDS011;10781;50.928;4.440;2022-12-07T12:22:20;7.05;;;3.47;;
21245;SDS011;10781;50.928;4.440;2022-12-07T12:24:52;6.05;;;3.35;;
21245;SDS011;10781;50.928;4.440;2022-12-07T12:27:26;7.85;;;3.38;;
21245;SDS011;10781;50.928;4.440;2022-12-07T12:29:56;8.77;;;3.15;;
21245;SDS011;10781;50.928;4.440;2022-12-07T12:35:01;9.15;;;3.55;;
21245;SDS011;10781;50.928;4.440;2022-12-07T12:37:46;6.72;;;3.33;;
21245;SDS011;10781;50.928;4.440;2022-12-07T12:42:56;7.07;;;3.00;;
21245;SDS011;10781;50.928;4.440;2022-12-07T12:45:23;7.07;;;3.65;;
21245;SDS011;10781;50.928;4.440;2022-12-07T12:51:35;4.47;;;2.60;;
21245;SDS011;10781;50.928;4.440;2022-12-07T12:54:04;4.95;;;2.50;;
21245;SDS011;10781;50.928;4.440;2022-12-07T12:57:21;5.03;;;2.65;;
21245;SDS011;10781;50.928;4.440;2022-12-07T12:59:30;6.13;;;2.45;;
21245;SDS011;10781;50.928;4.440;2022-12-07T13:02:20;4.55;;;2.67;;
21245;SDS011;10781;50.928;4.440;2022-12-07T13:04:54;5.15;;;2.35;;
21245;SDS011;10781;50.928;4.440;2022-12-07T13:15:38;4.10;;;1.90;;
21245;SDS011;10781;50.928;4.440;2022-12-07T13:23:37;3.60;;;2.08;;
21245;SDS011;10781;50.928;4.440;2022-12-07T13:28:50;5.22;;;2.40;;
21245;SDS011;10781;50.928;4.440;2022-12-07T13:31:18;3.40;;;1.95;;
21245;SDS011;10781;50.928;4.440;2022-12-07T13:34:05;3.72;;;1.60;;
21245;SDS011;10781;50.928;4.440;2022-12-07T13:36:57;4.68;;;2.00;;
21245;SDS011;10781;50.928;4.440;2022-12-07T13:39:29;6.88;;;1.80;;
21245;SDS011;10781;50.928;4.440;2022-12-07T13:41:58;6.28;;;1.63;;
21245;SDS011;10781;50.928;4.440;2022-12-07T13:44:27;8.07;;;1.90;;
21245;SDS011;10781;50.928;4.440;2022-12-07T13:52:55;4.60;;;1.60;;
21245;SDS011;10781;50.928;4.440;2022-12-07T13:55:22;4.20;;;1.63;;
21245;SDS011;10781;50.928;4.440;2022-12-07T13:57:49;6.30;;;3.13;;
21245;SDS011;10781;50.928;4.440;2022-12-07T14:00:18;5.45;;;1.85;;
21245;SDS011;10781;50.928;4.440;2022-12-07T14:02:57;6.80;;;2.42;;
21245;SDS011;10781;50.928;4.440;2022-12-07T14:05:25;4.25;;;2.80;;
21245;SDS011;10781;50.928;4.440;2022-12-07T14:07:54;5.75;;;2.75;;
21245;SDS011;10781;50.928;4.440;2022-12-07T14:10:28;4.78;;;2.97;;
21245;SDS011;10781;50.928;4.440;2022-12-07T14:15:45;4.45;;;3.00;;
21245;SDS011;10781;50.928;4.440;2022-12-07T14:21:14;4.50;;;3.28;;
21245;SDS011;10781;50.928;4.440;2022-12-07T14:26:48;5.97;;;4.28;;
21245;SDS011;10781;50.928;4.440;2022-12-07T14:29:19;9.43;;;4.53;;
21245;SDS011;10781;50.928;4.440;2022-12-07T14:31:51;6.18;;;4.10;;
21245;SDS011;10781;50.928;4.440;2022-12-07T14:34:19;5.10;;;3.67;;
21245;SDS011;10781;50.928;4.440;2022-12-07T14:36:45;6.78;;;3.53;;
21245;SDS011;10781;50.928;4.440;2022-12-07T14:39:11;8.15;;;4.05;;
21245;SDS011;10781;50.928;4.440;2022-12-07T14:41:36;5.93;;;3.47;;
21245;SDS011;10781;50.928;4.440;2022-12-07T14:44:18;5.28;;;3.38;;
21245;SDS011;10781;50.928;4.440;2022-12-07T14:46:45;6.50;;;4.00;;
21245;SDS011;10781;50.928;4.440;2022-12-07T14:49:12;5.65;;;3.75;;
21245;SDS011;10781;50.928;4.440;2022-12-07T14:51:38;10.10;;;3.50;;
21245;SDS011;10781;50.928;4.440;2022-12-07T14:54:06;7.45;;;4.28;;
21245;SDS011;10781;50.928;4.440;2022-12-07T14:56:36;7.15;;;3.85;;
21245;SDS011;10781;50.928;4.440;2022-12-07T14:59:02;6.43;;;4.05;;
21245;SDS011;10781;50.928;4.440;2022-12-07T15:01:27;9.20;;;4.78;;
21245;SDS011;10781;50.928;4.440;2022-12-07T15:03:53;9.95;;;5.88;;
21245;SDS011;10781;50.928;4.440;2022-12-07T15:06:19;10.40;;;5.90;;
21245;SDS011;10781;50.928;4.440;2022-12-07T15:08:44;13.45;;;6.53;;
21245;SDS011;10781;50.928;4.440;2022-12-07T15:11:14;7.82;;;4.68;;
21245;SDS011;10781;50.928;4.440;2022-12-07T15:13:41;7.95;;;4.82;;
21245;SDS011;10781;50.928;4.440;2022-12-07T15:16:25;10.48;;;4.97;;
21245;SDS011;10781;50.928;4.440;2022-12-07T15:18:51;8.70;;;4.50;;
21245;SDS011;10781;50.928;4.440;2022-12-07T15:21:17;9.02;;;4.57;;
21245;SDS011;10781;50.928;4.440;2022-12-07T15:23:43;5.68;;;3.70;;
21245;SDS011;10781;50.928;4.440;2022-12-07T15:26:11;6.15;;;3.00;;
21245;SDS011;10781;50.928;4.440;2022-12-07T15:28:38;5.43;;;3.67;;
21245;SDS011;10781;50.928;4.440;2022-12-07T15:31:04;6.75;;;3.38;;
21245;SDS011;10781;50.928;4.440;2022-12-07T15:33:36;8.93;;;4.35;;
21245;SDS011;10781;50.928;4.440;2022-12-07T15:36:02;12.90;;;5.18;;
21245;SDS011;10781;50.928;4.440;2022-12-07T15:38:28;6.70;;;3.90;;
21245;SDS011;10781;50.928;4.440;2022-12-07T15:40:55;7.13;;;3.53;;
21245;SDS011;10781;50.928;4.440;2022-12-07T15:43:21;7.47;;;3.88;;
21245;SDS011;10781;50.928;4.440;2022-12-07T15:46:05;11.75;;;4.60;;
21245;SDS011;10781;50.928;4.440;2022-12-07T15:48:31;12.23;;;6.10;;
21245;SDS011;10781;50.928;4.440;2022-12-07T15:51:06;10.63;;;5.68;;
21245;SDS011;10781;50.928;4.440;2022-12-07T15:53:34;11.55;;;5.68;;
21245;SDS011;10781;50.928;4.440;2022-12-07T15:56:01;8.05;;;4.55;;
21245;SDS011;10781;50.928;4.440;2022-12-07T15:58:31;6.68;;;4.18;;
21245;SDS011;10781;50.928;4.440;2022-12-07T16:00:56;8.07;;;4.68;;
21245;SDS011;10781;50.928;4.440;2022-12-07T16:03:22;8.43;;;4.40;;
21245;SDS011;10781;50.928;4.440;2022-12-07T16:05:51;9.10;;;5.00;;
21245;SDS011;10781;50.928;4.440;2022-12-07T16:08:18;8.75;;;4.95;;
21245;SDS011;10781;50.928;4.440;2022-12-07T16:10:44;8.93;;;5.30;;
21245;SDS011;10781;50.928;4.440;2022-12-07T16:13:10;12.48;;;6.47;;
21245;SDS011;10781;50.928;4.440;2022-12-07T16:15:40;14.57;;;6.20;;
21245;SDS011;10781;50.928;4.440;2022-12-07T16:18:06;12.18;;;5.63;;
21245;SDS011;10781;50.928;4.440;2022-12-07T16:20:32;10.15;;;5.60;;
21245;SDS011;10781;50.928;4.440;2022-12-07T16:22:58;9.68;;;4.78;;
21245;SDS011;10781;50.928;4.440;2022-12-07T16:25:24;11.73;;;5.18;;
21245;SDS011;10781;50.928;4.440;2022-12-07T16:27:53;12.13;;;7.03;;
21245;SDS011;10781;50.928;4.440;2022-12-07T16:30:19;19.25;;;7.25;;
21245;SDS011;10781;50.928;4.440;2022-12-07T16:32:45;13.00;;;6.22;;
21245;SDS011;10781;50.928;4.440;2022-12-07T16:35:11;10.82;;;5.72;;
21245;SDS011;10781;50.928;4.440;2022-12-07T16:37:37;11.85;;;5.40;;
21245;SDS011;10781;50.928;4.440;2022-12-07T16:40:03;12.27;;;5.10;;
21245;SDS011;10781;50.928;4.440;2022-12-07T16:42:33;10.63;;;5.13;;
21245;SDS011;10781;50.928;4.440;2022-12-07T16:45:00;9.27;;;5.28;;
21245;SDS011;10781;50.928;4.440;2022-12-07T16:47:26;12.77;;;5.47;;
21245;SDS011;10781;50.928;4.440;2022-12-07T16:49:52;13.10;;;6.45;;
21245;SDS011;10781;50.928;4.440;2022-12-07T16:52:18;13.05;;;6.43;;
21245;SDS011;10781;50.928;4.440;2022-12-07T16:54:45;12.30;;;6.40;;
21245;SDS011;10781;50.928;4.440;2022-12-07T16:57:11;9.88;;;6.00;;
21245;SDS011;10781;50.928;4.440;2022-12-07T16:59:36;13.70;;;5.97;;
21245;SDS011;10781;50.928;4.440;2022-12-07T17:02:02;10.35;;;5.20;;
21245;SDS011;10781;50.928;4.440;2022-12-07T17:04:28;8.70;;;4.90;;
21245;SDS011;10781;50.928;4.440;2022-12-07T17:06:54;8.07;;;4.80;;